createdAt,value
2019-03-16T00:00:17.896Z,99215.53
2019-03-16T00:02:46.736Z,99212.52
2019-03-16T00:05:16.073Z,99199.94
2019-03-16T00:07:44.827Z,99197.30
2019-03-16T00:10:14.225Z,99199.98
2019-03-16T00:12:42.989Z,99192.27
2019-03-16T00:15:11.762Z,99192.80
2019-03-16T00:17:40.596Z,99186.06
2019-03-16T00:20:11.070Z,99186.41
2019-03-16T00:22:39.892Z,99191.56
2019-03-16T00:25:09.719Z,99187.25
2019-03-16T00:27:38.585Z,99188.03
2019-03-16T00:30:10.049Z,99184.97
2019-03-16T00:32:38.886Z,99194.22
2019-03-16T00:35:07.733Z,99197.94
2019-03-16T00:37:36.585Z,99191.89
2019-03-16T00:40:07.911Z,99196.17
2019-03-16T00:42:36.738Z,99192.92
2019-03-16T00:45:10.525Z,99183.86
2019-03-16T00:47:39.356Z,99134.06
2019-03-16T00:50:10.551Z,99187.25
2019-03-16T00:52:39.386Z,99182.45
2019-03-16T00:55:09.336Z,99174.88
2019-03-16T00:57:38.195Z,99172.55
2019-03-16T01:00:14.809Z,99170.08
2019-03-16T01:02:43.738Z,99175.24
2019-03-16T01:05:12.687Z,99178.91
2019-03-16T01:07:41.508Z,99176.54
2019-03-16T01:10:11.154Z,99177.98
2019-03-16T01:12:39.921Z,99180.20
2019-03-16T01:15:12.940Z,99184.63
2019-03-16T01:17:41.705Z,99176.06
2019-03-16T01:20:11.636Z,99178.79
2019-03-16T01:22:40.478Z,99180.73
2019-03-16T01:25:10.409Z,99172.25
2019-03-16T01:27:39.178Z,99168.98
2019-03-16T01:30:13.020Z,99173.27
2019-03-16T01:32:41.865Z,99183.48
2019-03-16T01:35:10.701Z,99185.31
2019-03-16T01:37:39.456Z,99181.92
2019-03-16T01:40:10.021Z,99179.23
2019-03-16T01:42:38.862Z,99189.66
2019-03-16T01:45:09.493Z,99198.69
2019-03-16T01:47:38.912Z,99197.23
2019-03-16T01:50:09.948Z,99201.70
2019-03-16T01:52:38.716Z,99200.40
2019-03-16T01:55:08.982Z,99197.84
2019-03-16T01:57:37.741Z,99192.45
2019-03-16T02:00:11.384Z,99194.09
2019-03-16T02:02:53.746Z,99201.84
2019-03-16T02:05:10.779Z,99204.03
2019-03-16T02:07:39.554Z,99206.13
2019-03-16T02:10:09.480Z,99203.29
2019-03-16T02:12:38.315Z,99207.14
2019-03-16T02:15:08.638Z,99201.89
2019-03-16T02:17:37.392Z,99207.23
2019-03-16T02:20:08.154Z,99209.14
2019-03-16T02:22:36.968Z,99211.98
2019-03-16T02:25:09.414Z,99207.89
2019-03-16T02:27:38.240Z,99214.13
2019-03-16T02:30:09.629Z,99212.64
2019-03-16T02:32:38.380Z,99204.77
2019-03-16T02:35:08.144Z,99200.20
2019-03-16T02:37:36.915Z,99197.38
2019-03-16T02:40:10.061Z,99191.97
2019-03-16T02:42:38.833Z,99186.30
2019-03-16T02:45:09.399Z,99191.27
2019-03-16T02:47:38.275Z,99191.41
2019-03-16T02:50:08.722Z,99196.03
2019-03-16T02:52:37.573Z,99195.47
2019-03-16T02:55:08.298Z,99192.73
2019-03-16T02:57:37.040Z,99200.73
2019-03-16T03:00:08.735Z,99196.58
2019-03-16T03:02:37.498Z,99193.00
2019-03-16T03:05:08.599Z,99192.83
2019-03-16T03:07:37.338Z,99206.87
2019-03-16T03:10:08.920Z,99208.84
2019-03-16T03:12:37.774Z,99213.27
2019-03-16T03:15:07.742Z,99216.92
2019-03-16T03:17:36.501Z,99210.21
2019-03-16T03:20:07.437Z,99212.53
2019-03-16T03:22:36.254Z,99211.23
2019-03-16T03:25:05.542Z,99214.72
2019-03-16T03:27:34.289Z,99205.57
2019-03-16T03:30:03.052Z,99203.73
2019-03-16T03:32:31.810Z,99205.70
2019-03-16T03:35:01.116Z,99206.67
2019-03-16T03:37:30.098Z,99201.34
2019-03-16T03:39:58.871Z,99196.27
2019-03-16T03:42:27.642Z,99194.38
2019-03-16T03:44:56.455Z,99190.56
2019-03-16T03:47:25.237Z,99200.75
2019-03-16T03:49:54.128Z,99190.27
2019-03-16T03:52:22.819Z,99197.46
2019-03-16T03:54:51.591Z,99198.95
2019-03-16T03:57:20.341Z,99201.16
2019-03-16T03:59:49.177Z,99198.48
2019-03-16T04:02:17.934Z,99193.67
2019-03-16T04:04:46.707Z,99203.20
2019-03-16T04:07:19.872Z,99200.27
2019-03-16T04:09:45.963Z,99196.50
2019-03-16T04:12:14.737Z,99200.22
2019-03-16T04:14:43.585Z,99205.61
2019-03-16T04:17:12.332Z,99208.55
2019-03-16T04:19:41.110Z,99208.86
2019-03-16T04:22:09.941Z,99210.87
2019-03-16T04:24:38.698Z,99203.50
2019-03-16T04:27:15.664Z,99203.16
2019-03-16T04:29:37.934Z,99205.95
2019-03-16T04:32:08.287Z,99193.94
2019-03-16T04:34:37.053Z,99184.64
2019-03-16T04:37:05.887Z,99178.39
2019-03-16T04:39:34.657Z,99174.70
2019-03-16T04:42:03.432Z,99172.36
2019-03-16T04:44:32.195Z,99170.27
2019-03-16T04:47:01.039Z,99157.70
2019-03-16T04:49:29.912Z,99164.95
2019-03-16T04:51:58.921Z,99155.02
2019-03-16T04:54:27.779Z,99143.75
2019-03-16T04:56:56.540Z,99142.45
2019-03-16T04:59:25.367Z,99150.73
2019-03-16T05:01:54.200Z,99146.16
2019-03-16T05:04:22.968Z,99147.63
2019-03-16T05:06:51.817Z,99150.43
2019-03-16T05:09:20.654Z,99150.55
2019-03-16T05:11:49.428Z,99147.14
2019-03-16T05:14:18.203Z,99153.42
2019-03-16T05:16:47.031Z,99169.17
2019-03-16T05:19:15.801Z,99185.31
2019-03-16T05:21:44.647Z,99190.12
2019-03-16T05:24:13.421Z,99183.95
2019-03-16T05:26:42.181Z,99173.79
2019-03-16T05:29:10.948Z,99177.27
2019-03-16T05:31:39.711Z,99178.46
2019-03-16T05:34:08.547Z,99177.56
2019-03-16T05:36:37.372Z,99180.56
2019-03-16T05:39:07.538Z,99184.41
2019-03-16T05:41:36.985Z,99187.68
2019-03-16T05:44:06.338Z,99191.13
2019-03-16T05:46:35.696Z,99191.97
2019-03-16T05:49:05.137Z,99194.40
2019-03-16T05:51:34.486Z,99196.58
2019-03-16T05:54:03.925Z,99206.17
2019-03-16T05:56:33.275Z,99198.38
2019-03-16T05:59:02.629Z,99195.65
2019-03-16T06:01:31.994Z,99200.41
2019-03-16T06:04:01.468Z,99204.98
2019-03-16T06:06:30.912Z,99200.55
2019-03-16T06:09:00.325Z,99191.70
2019-03-16T06:11:29.775Z,99188.94
2019-03-16T06:13:59.213Z,99173.43
2019-03-16T06:16:28.580Z,99178.08
2019-03-16T06:18:57.364Z,99207.72
2019-03-16T06:21:26.838Z,99211.66
2019-03-16T06:23:56.200Z,99213.70
2019-03-16T06:26:25.638Z,99232.73
2019-03-16T06:28:55.085Z,99230.66
2019-03-16T06:31:24.438Z,99238.45
2019-03-16T06:33:53.877Z,99252.23
2019-03-16T06:36:23.252Z,99264.69
2019-03-16T06:38:52.624Z,99267.88
2019-03-16T06:41:22.057Z,99266.19
2019-03-16T06:43:51.492Z,99266.55
2019-03-16T06:46:20.873Z,99265.04
2019-03-16T06:48:50.301Z,99260.06
2019-03-16T06:51:19.657Z,99252.27
2019-03-16T06:53:49.051Z,99246.69
2019-03-16T06:56:18.395Z,99253.45
2019-03-16T06:58:47.744Z,99248.56
2019-03-16T07:01:17.123Z,99240.77
2019-03-16T07:03:46.478Z,99240.60
2019-03-16T07:06:15.904Z,99240.77
2019-03-16T07:08:45.317Z,99231.56
2019-03-16T07:11:14.747Z,99213.77
2019-03-16T07:13:44.245Z,99209.85
2019-03-16T07:16:13.623Z,99212.26
2019-03-16T07:18:43.063Z,99208.70
2019-03-16T07:21:12.485Z,99216.39
2019-03-16T07:23:41.916Z,99216.11
2019-03-16T07:26:15.065Z,99213.77
2019-03-16T07:28:42.505Z,99213.58
2019-03-16T07:31:11.929Z,99204.20
2019-03-16T07:33:41.350Z,99196.46
2019-03-16T07:36:10.785Z,99193.98
2019-03-16T07:38:40.164Z,99195.11
2019-03-16T07:41:09.529Z,99195.56
2019-03-16T07:43:38.911Z,99197.84
2019-03-16T07:46:08.260Z,99191.77
2019-03-16T07:48:37.758Z,99188.30
2019-03-16T07:51:07.093Z,99188.67
2019-03-16T07:53:36.462Z,99185.03
2019-03-16T07:56:05.885Z,99185.09
2019-03-16T07:58:35.319Z,99194.92
2019-03-16T08:01:04.676Z,99188.38
2019-03-16T08:03:34.098Z,99201.02
2019-03-16T08:06:03.525Z,99197.82
2019-03-16T08:08:32.877Z,99197.58
2019-03-16T08:11:02.326Z,99199.17
2019-03-16T08:13:31.679Z,99197.98
2019-03-16T08:16:01.053Z,99203.16
2019-03-16T08:18:30.401Z,99203.25
2019-03-16T08:20:59.781Z,99197.26
2019-03-16T08:23:29.136Z,99205.42
2019-03-16T08:25:58.527Z,99207.00
2019-03-16T08:28:27.942Z,99211.30
2019-03-16T08:30:57.297Z,99210.58
2019-03-16T08:33:26.658Z,99207.63
2019-03-16T08:35:56.069Z,99198.30
2019-03-16T08:38:25.502Z,99191.42
2019-03-16T08:40:54.931Z,99178.86
2019-03-16T08:43:24.342Z,99181.78
2019-03-16T08:45:53.841Z,99167.34
2019-03-16T08:48:23.506Z,99145.19
2019-03-16T08:50:52.899Z,99143.61
2019-03-16T08:53:23.053Z,99130.13
2019-03-16T08:55:52.714Z,99130.13
2019-03-16T08:58:22.143Z,99129.25
2019-03-16T09:00:51.568Z,99133.47
2019-03-16T09:03:20.950Z,99137.16
2019-03-16T09:05:50.389Z,99139.29
2019-03-16T09:08:19.823Z,99137.66
2019-03-16T09:10:49.191Z,99136.27
2019-03-16T09:13:18.634Z,99131.60
2019-03-16T09:15:47.988Z,99136.33
2019-03-16T09:18:17.408Z,99137.14
2019-03-16T09:20:46.827Z,99126.98
2019-03-16T09:23:16.269Z,99126.75
2019-03-16T09:25:45.618Z,99121.36
2019-03-16T09:28:18.846Z,99124.42
2019-03-16T09:30:46.182Z,99128.78
2019-03-16T09:33:15.729Z,99125.23
2019-03-16T09:35:45.233Z,99119.58
2019-03-16T09:38:14.672Z,99108.09
2019-03-16T09:40:44.026Z,99096.03
2019-03-16T09:43:13.380Z,99096.84
2019-03-16T09:45:42.843Z,99099.14
2019-03-16T09:48:12.223Z,99102.04
2019-03-16T09:50:41.634Z,99105.20
2019-03-16T09:53:11.076Z,99101.16
2019-03-16T09:55:40.420Z,99097.27
2019-03-16T09:58:09.789Z,99078.86
2019-03-16T10:00:39.155Z,99075.83
2019-03-16T10:03:08.601Z,99075.83
2019-03-16T10:05:37.947Z,99071.64
2019-03-16T10:08:07.376Z,99085.00
2019-03-16T10:10:36.725Z,99080.86
2019-03-16T10:13:06.150Z,99080.72
2019-03-16T10:15:35.509Z,99083.91
2019-03-16T10:18:04.936Z,99069.88
2019-03-16T10:20:34.362Z,99079.37
2019-03-16T10:23:03.783Z,99077.57
2019-03-16T10:25:33.201Z,99061.18
2019-03-16T10:28:02.560Z,99055.99
2019-03-16T10:30:31.998Z,99044.77
2019-03-16T10:33:01.432Z,99033.42
2019-03-16T10:35:30.778Z,99025.41
2019-03-16T10:38:00.835Z,99017.44
2019-03-16T10:40:30.334Z,99014.82
2019-03-16T10:42:59.757Z,99009.66
2019-03-16T10:45:29.123Z,99003.96
2019-03-16T10:47:58.476Z,98987.30
2019-03-16T10:50:27.848Z,98994.70
2019-03-16T10:52:57.203Z,98980.36
2019-03-16T10:55:26.608Z,98980.36
2019-03-16T10:57:55.991Z,98967.79
2019-03-16T11:00:25.433Z,98960.75
2019-03-16T11:02:54.850Z,98961.55
2019-03-16T11:05:24.484Z,98961.55
2019-03-16T11:07:53.907Z,98953.56
2019-03-16T11:10:22.966Z,98948.69
2019-03-16T11:12:52.330Z,98934.74
2019-03-16T11:15:21.682Z,98942.44
2019-03-16T11:17:51.129Z,98937.75
2019-03-16T11:20:20.949Z,98930.39
2019-03-16T11:22:50.386Z,98922.92
2019-03-16T11:25:19.813Z,98922.92
2019-03-16T11:27:49.180Z,98926.07
2019-03-16T11:30:18.902Z,98918.45
2019-03-16T11:32:48.334Z,98916.05
2019-03-16T11:35:17.683Z,98902.47
2019-03-16T11:37:47.048Z,98901.19
2019-03-16T11:40:17.604Z,98908.26
2019-03-16T11:42:46.953Z,98908.26
2019-03-16T11:45:17.256Z,98900.94
2019-03-16T11:47:46.967Z,98894.13
2019-03-16T11:50:16.355Z,98882.57
2019-03-16T11:52:45.773Z,98877.69
2019-03-16T11:55:14.896Z,98873.67
2019-03-16T11:57:43.950Z,98877.90
2019-03-16T12:00:16.183Z,98877.90
2019-03-16T12:02:45.528Z,98868.28
2019-03-16T12:05:14.991Z,98868.48
2019-03-16T12:07:44.415Z,98870.91
2019-03-16T12:10:15.859Z,98870.70
2019-03-16T12:12:45.334Z,98871.79
2019-03-16T12:15:14.928Z,98875.38
2019-03-16T12:17:44.069Z,98885.23
2019-03-16T12:20:18.685Z,98875.79
2019-03-16T12:22:48.227Z,98878.14
2019-03-16T12:25:17.255Z,98878.14
2019-03-16T12:27:46.435Z,98880.87
2019-03-16T12:30:16.162Z,98867.52
2019-03-16T12:32:45.543Z,98875.34
2019-03-16T12:35:14.988Z,98874.03
2019-03-16T12:37:44.133Z,98882.19
2019-03-16T12:40:14.455Z,98882.19
2019-03-16T12:42:43.895Z,98887.14
2019-03-16T12:45:14.757Z,98885.93
2019-03-16T12:47:44.126Z,98885.93
2019-03-16T12:50:13.691Z,98895.04
2019-03-16T12:52:42.987Z,98895.69
2019-03-16T12:55:12.912Z,98895.69
2019-03-16T12:57:42.393Z,98896.41
2019-03-16T13:00:19.266Z,98896.41
2019-03-16T13:02:48.866Z,98903.39
2019-03-16T13:05:18.306Z,98919.22
2019-03-16T13:07:47.732Z,98919.22
2019-03-16T13:10:18.198Z,98916.69
2019-03-16T13:12:47.704Z,98906.68
2019-03-16T13:15:17.145Z,98906.68
2019-03-16T13:17:46.580Z,98909.19
2019-03-16T13:20:16.820Z,98914.68
2019-03-16T13:22:46.259Z,98921.61
2019-03-16T13:25:15.694Z,98921.61
2019-03-16T13:27:45.066Z,98931.45
2019-03-16T13:30:16.575Z,98931.45
2019-03-16T13:32:45.913Z,98925.83
2019-03-16T13:35:15.366Z,98921.55
2019-03-16T13:37:44.895Z,98931.83
2019-03-16T13:40:15.422Z,98928.44
2019-03-16T13:42:44.848Z,98940.69
2019-03-16T13:45:14.464Z,98940.69
2019-03-16T13:47:43.832Z,98937.97
2019-03-16T13:50:17.022Z,98929.06
2019-03-16T13:52:46.653Z,98926.59
2019-03-16T13:55:16.012Z,98922.97
2019-03-16T13:57:45.507Z,98922.97
2019-03-16T14:00:17.170Z,98915.75
2019-03-16T14:02:46.537Z,98924.34
2019-03-16T14:05:15.983Z,98925.03
2019-03-16T14:07:45.646Z,98936.41
2019-03-16T14:10:19.845Z,98936.41
2019-03-16T14:12:49.268Z,98936.32
2019-03-16T14:15:18.621Z,98939.94
2019-03-16T14:17:48.040Z,98936.48
2019-03-16T14:20:17.838Z,98937.15
2019-03-16T14:22:47.261Z,98929.49
2019-03-16T14:25:16.699Z,98939.14
2019-03-16T14:27:46.129Z,98924.87
2019-03-16T14:30:29.504Z,98930.66
2019-03-16T14:32:48.677Z,98927.60
2019-03-16T14:35:18.014Z,98927.60
2019-03-16T14:37:47.363Z,98932.24
2019-03-16T14:45:14.849Z,98936.48
2019-03-16T14:47:44.293Z,98941.31
2019-03-16T14:50:18.965Z,98941.31
2019-03-16T14:52:48.339Z,98939.74
2019-03-16T14:55:17.701Z,98936.73
2019-03-16T14:57:47.153Z,98941.75
2019-03-16T15:00:17.273Z,98934.11
2019-03-16T15:02:47.012Z,98934.11
2019-03-16T15:05:16.637Z,98937.44
2019-03-16T15:07:49.404Z,98940.58
2019-03-16T15:10:17.845Z,98952.28
2019-03-16T15:12:47.198Z,98948.44
2019-03-16T15:15:20.548Z,98955.44
2019-03-16T15:17:49.899Z,98957.28
2019-03-16T15:20:19.296Z,98952.45
2019-03-16T15:22:48.726Z,98956.11
2019-03-16T15:25:18.085Z,98958.09
2019-03-16T15:27:47.525Z,98965.45
2019-03-16T15:30:21.769Z,98964.41
2019-03-16T15:32:51.130Z,98976.42
2019-03-16T15:35:20.495Z,98973.86
2019-03-16T15:37:49.920Z,98976.96
2019-03-16T15:40:19.615Z,98980.93
2019-03-16T15:42:49.039Z,98985.10
2019-03-16T15:45:23.676Z,98995.91
2019-03-16T15:47:53.207Z,98995.55
2019-03-16T15:50:22.634Z,98993.17
2019-03-16T15:52:52.064Z,98991.45
2019-03-16T15:55:21.489Z,99000.30
2019-03-16T15:57:50.541Z,98999.40
2019-03-16T16:00:22.684Z,99002.52
2019-03-16T16:02:52.022Z,99002.30
2019-03-16T16:05:21.456Z,99008.53
2019-03-16T16:07:50.868Z,99009.58
2019-03-16T16:10:20.432Z,99004.89
2019-03-16T16:12:49.854Z,99007.00
2019-03-16T17:08:20.116Z,99057.05
2019-03-16T17:59:41.179Z,99113.03
2019-03-16T18:02:10.633Z,99122.64
2019-03-16T18:04:40.122Z,99130.19
2019-03-16T18:07:09.808Z,99127.20
2019-03-16T18:09:39.249Z,99123.43
2019-03-16T18:12:08.708Z,99130.06
2019-03-16T18:14:38.255Z,99131.56
2019-03-16T18:17:07.665Z,99138.55
2019-03-16T18:19:37.120Z,99133.42
2019-03-16T18:22:06.666Z,99135.05
2019-03-16T18:24:36.027Z,99145.95
2019-03-16T18:27:05.468Z,99152.53
2019-03-16T18:29:34.949Z,99149.31
2019-03-16T18:32:08.119Z,99146.59
2019-03-16T18:34:35.660Z,99150.64
2019-03-16T18:37:05.119Z,99157.33
2019-03-16T18:39:34.709Z,99158.27
2019-03-16T18:42:04.396Z,99158.01
2019-03-16T18:44:33.953Z,99159.78
2019-03-16T18:47:03.327Z,99159.97
2019-03-16T18:49:32.677Z,99161.03
2019-03-16T18:52:02.348Z,99165.00
2019-03-16T18:54:31.847Z,99174.00
2019-03-16T18:57:01.483Z,99180.43
2019-03-16T18:59:30.994Z,99183.91
2019-03-16T19:02:00.614Z,99194.17
2019-03-16T19:04:30.122Z,99198.66
2019-03-16T19:06:59.663Z,99210.84
2019-03-16T19:09:29.156Z,99209.86
2019-03-16T19:11:58.621Z,99212.73
2019-03-16T19:14:28.110Z,99215.87
2019-03-16T19:16:57.580Z,99212.62
2019-03-16T19:19:27.021Z,99218.63
2019-03-16T19:21:56.456Z,99212.52
2019-03-16T19:24:25.884Z,99220.67
2019-03-16T19:26:55.394Z,99220.90
2019-03-16T19:29:24.958Z,99222.34
2019-03-16T19:31:54.450Z,99232.58
2019-03-16T19:34:23.908Z,99230.05
2019-03-16T19:36:55.073Z,99230.79
2019-03-16T19:39:25.222Z,99224.29
2019-03-16T19:41:54.771Z,99231.73
2019-03-16T19:44:24.203Z,99229.81
2019-03-16T19:46:53.644Z,99234.15
2019-03-16T19:49:23.075Z,99230.33
2019-03-16T19:51:52.536Z,99245.85
2019-03-16T19:54:21.961Z,99238.05
2019-03-16T19:56:51.407Z,99239.62
2019-03-16T19:59:20.859Z,99242.53
2019-03-16T20:01:50.304Z,99242.89
2019-03-16T20:04:19.813Z,99242.19
2019-03-16T20:06:49.267Z,99246.05
2019-03-16T20:09:18.752Z,99249.75
2019-03-16T20:11:48.228Z,99248.33
2019-03-16T20:14:17.694Z,99260.08
2019-03-16T20:16:47.230Z,99258.85
2019-03-16T20:19:16.713Z,99268.97
2019-03-16T20:21:46.240Z,99263.16
2019-03-16T20:24:15.860Z,99265.91
2019-03-16T20:26:45.516Z,99270.03
2019-03-16T20:29:14.991Z,99274.00
2019-03-16T20:31:47.251Z,99279.88
2019-03-16T20:34:15.603Z,99282.77
2019-03-16T20:36:45.029Z,99282.91
2019-03-16T20:39:14.527Z,99280.75
2019-03-16T20:41:43.939Z,99295.03
2019-03-16T20:44:13.390Z,99296.95
2019-03-16T20:46:42.921Z,99292.87
2019-03-16T20:49:12.408Z,99289.16
2019-03-16T20:51:41.827Z,99290.34
2019-03-16T20:54:11.322Z,99298.64
2019-03-16T20:56:40.767Z,99293.95
2019-03-16T20:59:10.235Z,99296.23
2019-03-16T21:01:39.822Z,99302.25
2019-03-16T21:04:09.261Z,99306.70
2019-03-16T21:06:38.704Z,99311.01
2019-03-16T21:09:08.057Z,99309.67
2019-03-16T21:11:37.497Z,99313.17
2019-03-16T21:14:06.959Z,99312.44
2019-03-16T21:16:36.415Z,99320.01
2019-03-16T21:19:05.860Z,99315.41
2019-03-16T21:21:35.238Z,99318.66
2019-03-16T21:24:07.328Z,99317.20
2019-03-16T21:26:35.906Z,99324.53
2019-03-16T21:29:05.278Z,99325.86
2019-03-16T21:31:34.739Z,99334.88
2019-03-16T21:34:04.163Z,99338.25
2019-03-16T21:36:41.470Z,99345.47
2019-03-16T21:39:06.936Z,99345.23
2019-03-16T21:41:36.376Z,99344.16
2019-03-16T21:44:05.809Z,99351.48
2019-03-16T21:46:35.257Z,99356.54
2019-03-16T21:49:04.690Z,99353.52
2019-03-16T21:51:34.047Z,99353.17
2019-03-16T21:54:03.508Z,99351.02
2019-03-16T21:56:32.943Z,99349.57
2019-03-16T21:59:02.389Z,99353.64
2019-03-16T22:01:31.820Z,99348.55
2019-03-16T22:04:01.294Z,99355.31
2019-03-16T22:06:30.792Z,99357.37
2019-03-16T22:09:00.231Z,99357.34
2019-03-16T22:11:29.663Z,99357.45
2019-03-16T22:13:59.102Z,99362.48
2019-03-16T22:16:28.557Z,99359.08
2019-03-16T22:18:57.992Z,99358.59
2019-03-16T22:21:27.462Z,99351.98
2019-03-16T22:23:56.913Z,99349.09
2019-03-16T22:26:26.359Z,99348.34
2019-03-16T22:28:55.794Z,99354.46
2019-03-16T22:31:25.329Z,99356.16
2019-03-16T22:33:55.033Z,99359.38
2019-03-16T22:36:24.568Z,99356.28
2019-03-16T22:38:53.992Z,99359.44
2019-03-16T22:41:23.481Z,99367.75
2019-03-16T22:43:52.928Z,99370.03
2019-03-16T22:46:22.497Z,99366.46
2019-03-16T22:48:51.953Z,99364.66
2019-03-16T22:51:21.412Z,99364.81
2019-03-16T22:53:50.865Z,99364.81
2019-03-16T22:56:20.264Z,99370.03
2019-03-16T22:58:49.637Z,99367.05
2019-03-16T23:01:19.394Z,99365.95
2019-03-16T23:03:48.818Z,99372.39
2019-03-16T23:06:18.296Z,99371.56
2019-03-16T23:08:47.798Z,99374.36
2019-03-16T23:11:17.278Z,99371.46
2019-03-16T23:13:46.701Z,99374.13
2019-03-16T23:16:18.765Z,99378.05
2019-03-16T23:18:47.217Z,99384.14
2019-03-16T23:21:16.713Z,99385.08
2019-03-16T23:23:46.193Z,99380.77
2019-03-16T23:26:15.617Z,99388.91
2019-03-16T23:28:45.062Z,99384.56
2019-03-16T23:31:14.498Z,99380.00
2019-03-16T23:33:43.939Z,99383.73
2019-03-16T23:36:13.381Z,99384.21
2019-03-16T23:38:42.835Z,99386.59
2019-03-16T23:41:12.294Z,99385.15
2019-03-16T23:43:41.723Z,99388.63
2019-03-16T23:46:11.226Z,99384.28
2019-03-16T23:48:40.626Z,99382.61
2019-03-16T23:51:10.043Z,99390.36
2019-03-16T23:53:39.512Z,99380.30
2019-03-16T23:56:08.913Z,99390.03
2019-03-16T23:58:38.333Z,99381.03
